sensor_id;sensor_type;location;lat;lon;timestamp;P1;durP1;ratioP1;P2;durP2;ratioP2
79468;SDS011;68936;52.526;13.326;2023-05-10T00:02:16;10.98;;;5.72;;
79468;SDS011;68936;52.526;13.326;2023-05-10T00:04:42;12.75;;;4.82;;
79468;SDS011;68936;52.526;13.326;2023-05-10T00:07:08;10.98;;;5.15;;
79468;SDS011;68936;52.526;13.326;2023-05-10T00:09:35;8.88;;;5.05;;
79468;SDS011;68936;52.526;13.326;2023-05-10T00:12:01;10.52;;;4.93;;
79468;SDS011;68936;52.526;13.326;2023-05-10T00:14:27;10.48;;;5.22;;
79468;SDS011;68936;52.526;13.326;2023-05-10T00:16:55;11.98;;;5.78;;
79468;SDS011;68936;52.526;13.326;2023-05-10T00:19:24;14.80;;;5.30;;
79468;SDS011;68936;52.526;13.326;2023-05-10T00:21:52;10.00;;;5.00;;
79468;SDS011;68936;52.526;13.326;2023-05-10T00:24:18;13.00;;;6.03;;
79468;SDS011;68936;52.526;13.326;2023-05-10T00:26:47;15.35;;;5.65;;
79468;SDS011;68936;52.526;13.326;2023-05-10T00:29:15;11.68;;;5.00;;
79468;SDS011;68936;52.526;13.326;2023-05-10T00:31:43;10.60;;;4.63;;
79468;SDS011;68936;52.526;13.326;2023-05-10T00:34:09;11.13;;;5.13;;
79468;SDS011;68936;52.526;13.326;2023-05-10T00:36:35;10.68;;;5.13;;
79468;SDS011;68936;52.526;13.326;2023-05-10T00:39:01;8.35;;;4.45;;
79468;SDS011;68936;52.526;13.326;2023-05-10T00:41:28;11.93;;;5.00;;
79468;SDS011;68936;52.526;13.326;2023-05-10T00:43:57;11.07;;;5.15;;
79468;SDS011;68936;52.526;13.326;2023-05-10T00:46:23;10.73;;;5.10;;
79468;SDS011;68936;52.526;13.326;2023-05-10T00:48:49;11.63;;;5.03;;
79468;SDS011;68936;52.526;13.326;2023-05-10T00:51:19;10.90;;;5.63;;
79468;SDS011;68936;52.526;13.326;2023-05-10T00:53:45;7.70;;;4.78;;
79468;SDS011;68936;52.526;13.326;2023-05-10T00:56:12;13.45;;;5.32;;
79468;SDS011;68936;52.526;13.326;2023-05-10T00:58:40;8.98;;;5.28;;
79468;SDS011;68936;52.526;13.326;2023-05-10T01:01:09;7.47;;;4.40;;
79468;SDS011;68936;52.526;13.326;2023-05-10T01:03:36;12.38;;;5.80;;
79468;SDS011;68936;52.526;13.326;2023-05-10T01:06:05;12.23;;;5.80;;
79468;SDS011;68936;52.526;13.326;2023-05-10T01:08:31;8.55;;;4.50;;
79468;SDS011;68936;52.526;13.326;2023-05-10T01:10:57;8.35;;;4.90;;
79468;SDS011;68936;52.526;13.326;2023-05-10T01:13:33;11.48;;;5.22;;
79468;SDS011;68936;52.526;13.326;2023-05-10T01:16:03;10.05;;;4.93;;
79468;SDS011;68936;52.526;13.326;2023-05-10T01:18:30;12.00;;;5.00;;
79468;SDS011;68936;52.526;13.326;2023-05-10T01:21:00;10.85;;;5.95;;
79468;SDS011;68936;52.526;13.326;2023-05-10T01:28:58;8.88;;;4.53;;
79468;SDS011;68936;52.526;13.326;2023-05-10T01:34:02;10.68;;;5.00;;
79468;SDS011;68936;52.526;13.326;2023-05-10T01:36:35;9.80;;;4.60;;
79468;SDS011;68936;52.526;13.326;2023-05-10T01:39:10;8.70;;;4.22;;
79468;SDS011;68936;52.526;13.326;2023-05-10T01:46:45;8.63;;;4.78;;
79468;SDS011;68936;52.526;13.326;2023-05-10T01:49:26;9.57;;;4.50;;
79468;SDS011;68936;52.526;13.326;2023-05-10T01:51:57;9.45;;;4.50;;
79468;SDS011;68936;52.526;13.326;2023-05-10T01:54:24;7.38;;;4.80;;
79468;SDS011;68936;52.526;13.326;2023-05-10T01:56:52;7.78;;;4.60;;
79468;SDS011;68936;52.526;13.326;2023-05-10T01:59:23;6.70;;;4.50;;
79468;SDS011;68936;52.526;13.326;2023-05-10T02:01:53;8.30;;;5.35;;
79468;SDS011;68936;52.526;13.326;2023-05-10T02:04:19;7.72;;;4.68;;
79468;SDS011;68936;52.526;13.326;2023-05-10T02:06:47;7.10;;;4.50;;
79468;SDS011;68936;52.526;13.326;2023-05-10T02:09:14;7.35;;;4.93;;
79468;SDS011;68936;52.526;13.326;2023-05-10T02:11:41;7.88;;;4.38;;
79468;SDS011;68936;52.526;13.326;2023-05-10T02:14:09;8.63;;;4.10;;
79468;SDS011;68936;52.526;13.326;2023-05-10T02:16:35;10.32;;;4.80;;
79468;SDS011;68936;52.526;13.326;2023-05-10T02:19:02;6.32;;;3.88;;
79468;SDS011;68936;52.526;13.326;2023-05-10T02:21:29;6.47;;;4.30;;
79468;SDS011;68936;52.526;13.326;2023-05-10T02:23:56;8.20;;;4.40;;
79468;SDS011;68936;52.526;13.326;2023-05-10T02:26:22;6.00;;;4.07;;
79468;SDS011;68936;52.526;13.326;2023-05-10T02:28:50;9.70;;;4.75;;
79468;SDS011;68936;52.526;13.326;2023-05-10T02:31:16;7.65;;;4.25;;
79468;SDS011;68936;52.526;13.326;2023-05-10T02:33:43;6.43;;;4.55;;
79468;SDS011;68936;52.526;13.326;2023-05-10T02:36:10;8.63;;;4.65;;
79468;SDS011;68936;52.526;13.326;2023-05-10T02:38:39;6.80;;;4.05;;
79468;SDS011;68936;52.526;13.326;2023-05-10T02:41:06;7.45;;;5.07;;
79468;SDS011;68936;52.526;13.326;2023-05-10T02:43:33;7.28;;;4.00;;
79468;SDS011;68936;52.526;13.326;2023-05-10T02:46:00;7.05;;;4.15;;
79468;SDS011;68936;52.526;13.326;2023-05-10T02:48:26;8.25;;;4.18;;
79468;SDS011;68936;52.526;13.326;2023-05-10T02:50:52;7.32;;;4.22;;
79468;SDS011;68936;52.526;13.326;2023-05-10T02:53:20;4.78;;;3.70;;
79468;SDS011;68936;52.526;13.326;2023-05-10T02:55:49;7.50;;;4.43;;
79468;SDS011;68936;52.526;13.326;2023-05-10T02:58:17;8.13;;;3.75;;
79468;SDS011;68936;52.526;13.326;2023-05-10T03:00:47;6.90;;;4.63;;
79468;SDS011;68936;52.526;13.326;2023-05-10T03:03:13;7.97;;;4.68;;
79468;SDS011;68936;52.526;13.326;2023-05-10T03:05:39;7.18;;;4.50;;
79468;SDS011;68936;52.526;13.326;2023-05-10T03:08:05;6.78;;;4.30;;
79468;SDS011;68936;52.526;13.326;2023-05-10T03:10:31;5.68;;;4.10;;
79468;SDS011;68936;52.526;13.326;2023-05-10T03:18:15;7.38;;;4.03;;
79468;SDS011;68936;52.526;13.326;2023-05-10T03:20:47;6.20;;;4.38;;
79468;SDS011;68936;52.526;13.326;2023-05-10T03:25:55;8.38;;;5.10;;
79468;SDS011;68936;52.526;13.326;2023-05-10T03:28:24;8.60;;;4.57;;
79468;SDS011;68936;52.526;13.326;2023-05-10T03:30:56;5.95;;;4.05;;
79468;SDS011;68936;52.526;13.326;2023-05-10T03:33:22;7.93;;;4.40;;
79468;SDS011;68936;52.526;13.326;2023-05-10T03:35:48;6.43;;;4.38;;
79468;SDS011;68936;52.526;13.326;2023-05-10T03:38:16;6.28;;;4.18;;
79468;SDS011;68936;52.526;13.326;2023-05-10T03:40:42;7.60;;;4.10;;
79468;SDS011;68936;52.526;13.326;2023-05-10T03:43:08;7.20;;;4.30;;
79468;SDS011;68936;52.526;13.326;2023-05-10T03:45:34;6.90;;;4.32;;
79468;SDS011;68936;52.526;13.326;2023-05-10T03:48:01;6.22;;;3.92;;
79468;SDS011;68936;52.526;13.326;2023-05-10T03:50:29;6.65;;;4.05;;
79468;SDS011;68936;52.526;13.326;2023-05-10T03:52:55;6.43;;;4.10;;
79468;SDS011;68936;52.526;13.326;2023-05-10T03:55:24;5.07;;;3.85;;
79468;SDS011;68936;52.526;13.326;2023-05-10T03:57:50;8.85;;;4.38;;
79468;SDS011;68936;52.526;13.326;2023-05-10T04:00:19;7.10;;;4.00;;
79468;SDS011;68936;52.526;13.326;2023-05-10T04:02:45;5.88;;;3.78;;
79468;SDS011;68936;52.526;13.326;2023-05-10T04:05:11;6.78;;;4.30;;
79468;SDS011;68936;52.526;13.326;2023-05-10T04:07:37;6.75;;;4.00;;
79468;SDS011;68936;52.526;13.326;2023-05-10T04:10:03;6.60;;;3.95;;
79468;SDS011;68936;52.526;13.326;2023-05-10T04:12:32;6.47;;;4.47;;
79468;SDS011;68936;52.526;13.326;2023-05-10T04:14:58;5.80;;;3.90;;
79468;SDS011;68936;52.526;13.326;2023-05-10T04:17:26;5.13;;;3.75;;
79468;SDS011;68936;52.526;13.326;2023-05-10T04:19:54;6.45;;;3.95;;
79468;SDS011;68936;52.526;13.326;2023-05-10T04:22:23;6.30;;;4.13;;
79468;SDS011;68936;52.526;13.326;2023-05-10T04:24:49;6.97;;;4.10;;
79468;SDS011;68936;52.526;13.326;2023-05-10T04:27:16;6.63;;;4.28;;
79468;SDS011;68936;52.526;13.326;2023-05-10T04:29:41;7.93;;;3.90;;
79468;SDS011;68936;52.526;13.326;2023-05-10T04:32:07;7.30;;;3.85;;
79468;SDS011;68936;52.526;13.326;2023-05-10T04:34:35;5.28;;;3.72;;
79468;SDS011;68936;52.526;13.326;2023-05-10T04:37:01;5.22;;;3.70;;
79468;SDS011;68936;52.526;13.326;2023-05-10T04:39:27;6.28;;;4.28;;
79468;SDS011;68936;52.526;13.326;2023-05-10T04:41:55;6.35;;;4.03;;
79468;SDS011;68936;52.526;13.326;2023-05-10T04:44:21;5.75;;;4.18;;
79468;SDS011;68936;52.526;13.326;2023-05-10T04:46:47;6.32;;;4.10;;
79468;SDS011;68936;52.526;13.326;2023-05-10T04:49:13;5.80;;;3.83;;
79468;SDS011;68936;52.526;13.326;2023-05-10T04:51:39;4.63;;;3.28;;
79468;SDS011;68936;52.526;13.326;2023-05-10T04:54:05;4.97;;;3.75;;
79468;SDS011;68936;52.526;13.326;2023-05-10T04:56:31;6.88;;;4.35;;
79468;SDS011;68936;52.526;13.326;2023-05-10T04:58:57;5.97;;;4.10;;
79468;SDS011;68936;52.526;13.326;2023-05-10T05:01:23;4.93;;;3.95;;
79468;SDS011;68936;52.526;13.326;2023-05-10T05:03:49;5.72;;;4.30;;
79468;SDS011;68936;52.526;13.326;2023-05-10T05:06:17;5.32;;;3.67;;
79468;SDS011;68936;52.526;13.326;2023-05-10T05:08:43;5.88;;;3.90;;
79468;SDS011;68936;52.526;13.326;2023-05-10T05:11:12;6.35;;;3.40;;
79468;SDS011;68936;52.526;13.326;2023-05-10T05:13:38;5.93;;;3.75;;
79468;SDS011;68936;52.526;13.326;2023-05-10T05:16:04;6.03;;;3.75;;
79468;SDS011;68936;52.526;13.326;2023-05-10T05:18:30;4.90;;;3.35;;
79468;SDS011;68936;52.526;13.326;2023-05-10T05:20:56;5.07;;;3.90;;
79468;SDS011;68936;52.526;13.326;2023-05-10T05:23:22;5.40;;;3.28;;
79468;SDS011;68936;52.526;13.326;2023-05-10T05:25:51;4.60;;;3.65;;
79468;SDS011;68936;52.526;13.326;2023-05-10T05:28:17;5.85;;;3.58;;
79468;SDS011;68936;52.526;13.326;2023-05-10T05:30:43;7.43;;;4.38;;
79468;SDS011;68936;52.526;13.326;2023-05-10T05:33:09;6.97;;;3.83;;
79468;SDS011;68936;52.526;13.326;2023-05-10T05:35:35;6.30;;;3.65;;
79468;SDS011;68936;52.526;13.326;2023-05-10T05:38:01;6.35;;;3.67;;
79468;SDS011;68936;52.526;13.326;2023-05-10T05:40:27;5.88;;;3.70;;
79468;SDS011;68936;52.526;13.326;2023-05-10T05:42:53;6.32;;;3.30;;
79468;SDS011;68936;52.526;13.326;2023-05-10T05:45:22;10.02;;;4.07;;
79468;SDS011;68936;52.526;13.326;2023-05-10T05:47:51;7.38;;;3.63;;
79468;SDS011;68936;52.526;13.326;2023-05-10T05:50:17;10.82;;;3.05;;
79468;SDS011;68936;52.526;13.326;2023-05-10T05:52:45;6.20;;;3.40;;
79468;SDS011;68936;52.526;13.326;2023-05-10T05:55:11;6.38;;;3.60;;
79468;SDS011;68936;52.526;13.326;2023-05-10T05:57:37;6.82;;;3.58;;
79468;SDS011;68936;52.526;13.326;2023-05-10T06:00:06;7.20;;;3.88;;
79468;SDS011;68936;52.526;13.326;2023-05-10T06:02:32;5.18;;;3.38;;
79468;SDS011;68936;52.526;13.326;2023-05-10T06:05:03;7.38;;;3.72;;
79468;SDS011;68936;52.526;13.326;2023-05-10T06:07:29;5.97;;;3.95;;
79468;SDS011;68936;52.526;13.326;2023-05-10T06:09:56;6.70;;;4.00;;
79468;SDS011;68936;52.526;13.326;2023-05-10T06:12:24;10.30;;;4.22;;
79468;SDS011;68936;52.526;13.326;2023-05-10T06:14:50;5.90;;;3.80;;
79468;SDS011;68936;52.526;13.326;2023-05-10T06:17:16;8.57;;;3.47;;
79468;SDS011;68936;52.526;13.326;2023-05-10T06:19:43;8.93;;;4.22;;
79468;SDS011;68936;52.526;13.326;2023-05-10T06:22:11;9.82;;;4.28;;
79468;SDS011;68936;52.526;13.326;2023-05-10T06:24:37;11.00;;;3.90;;
79468;SDS011;68936;52.526;13.326;2023-05-10T06:27:03;5.03;;;3.38;;
79468;SDS011;68936;52.526;13.326;2023-05-10T06:29:29;9.90;;;3.85;;
79468;SDS011;68936;52.526;13.326;2023-05-10T06:31:55;13.40;;;4.07;;
79468;SDS011;68936;52.526;13.326;2023-05-10T06:34:21;7.18;;;3.47;;
79468;SDS011;68936;52.526;13.326;2023-05-10T06:36:47;10.18;;;3.90;;
79468;SDS011;68936;52.526;13.326;2023-05-10T06:39:13;8.43;;;3.97;;
79468;SDS011;68936;52.526;13.326;2023-05-10T06:41:39;6.55;;;3.63;;
79468;SDS011;68936;52.526;13.326;2023-05-10T06:44:05;11.30;;;4.07;;
79468;SDS011;68936;52.526;13.326;2023-05-10T06:46:31;10.10;;;4.20;;
79468;SDS011;68936;52.526;13.326;2023-05-10T06:48:57;10.95;;;4.30;;
79468;SDS011;68936;52.526;13.326;2023-05-10T06:51:23;10.40;;;4.18;;
79468;SDS011;68936;52.526;13.326;2023-05-10T06:53:49;11.60;;;4.22;;
79468;SDS011;68936;52.526;13.326;2023-05-10T06:56:18;8.27;;;4.25;;
79468;SDS011;68936;52.526;13.326;2023-05-10T06:58:46;7.05;;;4.13;;
79468;SDS011;68936;52.526;13.326;2023-05-10T07:01:12;7.03;;;3.55;;
79468;SDS011;68936;52.526;13.326;2023-05-10T07:03:40;6.82;;;4.05;;
79468;SDS011;68936;52.526;13.326;2023-05-10T07:06:06;7.72;;;3.88;;
79468;SDS011;68936;52.526;13.326;2023-05-10T07:08:33;8.00;;;4.30;;
79468;SDS011;68936;52.526;13.326;2023-05-10T07:11:02;10.43;;;4.03;;
79468;SDS011;68936;52.526;13.326;2023-05-10T07:13:29;8.07;;;3.78;;
79468;SDS011;68936;52.526;13.326;2023-05-10T07:15:58;7.63;;;3.65;;
79468;SDS011;68936;52.526;13.326;2023-05-10T07:18:25;7.72;;;4.13;;
79468;SDS011;68936;52.526;13.326;2023-05-10T07:20:54;6.35;;;3.72;;
79468;SDS011;68936;52.526;13.326;2023-05-10T07:23:20;6.53;;;4.00;;
79468;SDS011;68936;52.526;13.326;2023-05-10T07:25:49;4.88;;;3.20;;
79468;SDS011;68936;52.526;13.326;2023-05-10T07:28:17;6.15;;;3.83;;
79468;SDS011;68936;52.526;13.326;2023-05-10T07:30:45;8.50;;;4.13;;
79468;SDS011;68936;52.526;13.326;2023-05-10T07:33:12;8.43;;;3.88;;
79468;SDS011;68936;52.526;13.326;2023-05-10T07:35:38;5.35;;;3.60;;
79468;SDS011;68936;52.526;13.326;2023-05-10T07:38:04;7.50;;;4.15;;
79468;SDS011;68936;52.526;13.326;2023-05-10T07:40:30;5.05;;;3.42;;
79468;SDS011;68936;52.526;13.326;2023-05-10T07:42:57;7.40;;;3.70;;
79468;SDS011;68936;52.526;13.326;2023-05-10T07:45:26;6.05;;;4.07;;
79468;SDS011;68936;52.526;13.326;2023-05-10T07:47:52;6.25;;;3.90;;
79468;SDS011;68936;52.526;13.326;2023-05-10T07:50:21;7.47;;;4.20;;
79468;SDS011;68936;52.526;13.326;2023-05-10T07:52:47;5.95;;;3.67;;
79468;SDS011;68936;52.526;13.326;2023-05-10T07:55:13;5.90;;;3.65;;
79468;SDS011;68936;52.526;13.326;2023-05-10T07:57:42;5.75;;;4.15;;
79468;SDS011;68936;52.526;13.326;2023-05-10T08:00:08;7.78;;;4.28;;
79468;SDS011;68936;52.526;13.326;2023-05-10T08:02:34;7.07;;;3.72;;
79468;SDS011;68936;52.526;13.326;2023-05-10T08:05:03;9.52;;;3.78;;
79468;SDS011;68936;52.526;13.326;2023-05-10T08:07:30;6.28;;;4.07;;
79468;SDS011;68936;52.526;13.326;2023-05-10T08:09:56;6.22;;;3.67;;
79468;SDS011;68936;52.526;13.326;2023-05-10T08:12:22;5.93;;;3.60;;
79468;SDS011;68936;52.526;13.326;2023-05-10T08:14:48;6.18;;;2.97;;
79468;SDS011;68936;52.526;13.326;2023-05-10T08:17:14;9.07;;;3.80;;
79468;SDS011;68936;52.526;13.326;2023-05-10T08:19:43;4.65;;;3.38;;
79468;SDS011;68936;52.526;13.326;2023-05-10T08:22:09;5.50;;;3.50;;
79468;SDS011;68936;52.526;13.326;2023-05-10T08:24:35;8.25;;;4.20;;
79468;SDS011;68936;52.526;13.326;2023-05-10T08:27:04;7.75;;;3.53;;
79468;SDS011;68936;52.526;13.326;2023-05-10T08:29:32;6.50;;;3.47;;
79468;SDS011;68936;52.526;13.326;2023-05-10T08:31:58;5.18;;;3.20;;
79468;SDS011;68936;52.526;13.326;2023-05-10T08:34:27;5.75;;;3.28;;
79468;SDS011;68936;52.526;13.326;2023-05-10T08:36:56;7.40;;;3.47;;
79468;SDS011;68936;52.526;13.326;2023-05-10T08:39:22;6.45;;;3.17;;
79468;SDS011;68936;52.526;13.326;2023-05-10T08:41:48;5.47;;;3.15;;
79468;SDS011;68936;52.526;13.326;2023-05-10T08:44:15;6.97;;;4.10;;
79468;SDS011;68936;52.526;13.326;2023-05-10T08:46:43;5.80;;;3.67;;
79468;SDS011;68936;52.526;13.326;2023-05-10T08:49:12;6.22;;;3.90;;
79468;SDS011;68936;52.526;13.326;2023-05-10T08:51:40;6.00;;;3.47;;
79468;SDS011;68936;52.526;13.326;2023-05-10T08:54:09;4.78;;;3.47;;
79468;SDS011;68936;52.526;13.326;2023-05-10T08:56:35;6.05;;;3.58;;
79468;SDS011;68936;52.526;13.326;2023-05-10T08:59:01;5.57;;;3.45;;
79468;SDS011;68936;52.526;13.326;2023-05-10T09:01:28;6.75;;;4.00;;
79468;SDS011;68936;52.526;13.326;2023-05-10T09:03:54;3.92;;;3.25;;
79468;SDS011;68936;52.526;13.326;2023-05-10T09:06:20;5.78;;;3.60;;
79468;SDS011;68936;52.526;13.326;2023-05-10T09:08:46;4.50;;;3.58;;
79468;SDS011;68936;52.526;13.326;2023-05-10T09:11:12;5.50;;;3.47;;
79468;SDS011;68936;52.526;13.326;2023-05-10T09:13:41;6.78;;;3.50;;
79468;SDS011;68936;52.526;13.326;2023-05-10T09:16:08;4.93;;;3.00;;
79468;SDS011;68936;52.526;13.326;2023-05-10T09:18:37;5.55;;;3.35;;
79468;SDS011;68936;52.526;13.326;2023-05-10T09:21:03;5.22;;;3.55;;
79468;SDS011;68936;52.526;13.326;2023-05-10T09:23:29;4.90;;;3.10;;
79468;SDS011;68936;52.526;13.326;2023-05-10T09:26:06;6.38;;;3.40;;
79468;SDS011;68936;52.526;13.326;2023-05-10T09:31:17;6.78;;;3.55;;
79468;SDS011;68936;52.526;13.326;2023-05-10T09:33:44;5.22;;;3.05;;
79468;SDS011;68936;52.526;13.326;2023-05-10T09:36:11;5.03;;;3.50;;
79468;SDS011;68936;52.526;13.326;2023-05-10T09:38:50;5.97;;;3.50;;
79468;SDS011;68936;52.526;13.326;2023-05-10T09:41:20;5.22;;;2.97;;
79468;SDS011;68936;52.526;13.326;2023-05-10T09:43:46;5.32;;;3.47;;
79468;SDS011;68936;52.526;13.326;2023-05-10T09:46:15;4.82;;;3.22;;
79468;SDS011;68936;52.526;13.326;2023-05-10T09:48:44;5.28;;;3.33;;
79468;SDS011;68936;52.526;13.326;2023-05-10T09:51:18;5.30;;;3.55;;
79468;SDS011;68936;52.526;13.326;2023-05-10T09:53:44;4.38;;;3.15;;
79468;SDS011;68936;52.526;13.326;2023-05-10T09:56:11;5.07;;;3.40;;
79468;SDS011;68936;52.526;13.326;2023-05-10T09:58:41;4.18;;;3.20;;
79468;SDS011;68936;52.526;13.326;2023-05-10T10:01:11;6.22;;;3.50;;
79468;SDS011;68936;52.526;13.326;2023-05-10T10:03:41;6.03;;;3.47;;
79468;SDS011;68936;52.526;13.326;2023-05-10T10:06:08;4.65;;;2.88;;
79468;SDS011;68936;52.526;13.326;2023-05-10T10:08:36;6.43;;;3.25;;
79468;SDS011;68936;52.526;13.326;2023-05-10T10:11:02;4.88;;;3.17;;
79468;SDS011;68936;52.526;13.326;2023-05-10T10:13:28;4.57;;;3.05;;
79468;SDS011;68936;52.526;13.326;2023-05-10T10:15:55;5.30;;;3.40;;
79468;SDS011;68936;52.526;13.326;2023-05-10T10:18:21;7.00;;;3.25;;
79468;SDS011;68936;52.526;13.326;2023-05-10T10:20:52;3.90;;;3.03;;
79468;SDS011;68936;52.526;13.326;2023-05-10T10:23:23;4.82;;;3.38;;
79468;SDS011;68936;52.526;13.326;2023-05-10T10:25:49;5.53;;;3.03;;
79468;SDS011;68936;52.526;13.326;2023-05-10T10:30:47;4.75;;;3.35;;
79468;SDS011;68936;52.526;13.326;2023-05-10T10:36:03;5.63;;;3.30;;
79468;SDS011;68936;52.526;13.326;2023-05-10T10:38:36;4.05;;;2.92;;
79468;SDS011;68936;52.526;13.326;2023-05-10T10:41:26;3.78;;;2.85;;
79468;SDS011;68936;52.526;13.326;2023-05-10T10:49:25;5.45;;;3.25;;
79468;SDS011;68936;52.526;13.326;2023-05-10T10:54:36;6.82;;;3.28;;
79468;SDS011;68936;52.526;13.326;2023-05-10T10:57:11;4.93;;;3.13;;
79468;SDS011;68936;52.526;13.326;2023-05-10T10:59:44;4.85;;;3.22;;
79468;SDS011;68936;52.526;13.326;2023-05-10T11:02:32;4.78;;;2.88;;
79468;SDS011;68936;52.526;13.326;2023-05-10T11:05:21;4.03;;;2.97;;
79468;SDS011;68936;52.526;13.326;2023-05-10T11:07:56;4.05;;;2.75;;
79468;SDS011;68936;52.526;13.326;2023-05-10T11:10:22;3.97;;;2.95;;
79468;SDS011;68936;52.526;13.326;2023-05-10T11:15:36;4.28;;;2.95;;
79468;SDS011;68936;52.526;13.326;2023-05-10T11:18:18;4.72;;;3.58;;
79468;SDS011;68936;52.526;13.326;2023-05-10T11:20:44;4.38;;;3.10;;
79468;SDS011;68936;52.526;13.326;2023-05-10T11:23:12;4.35;;;3.38;;
79468;SDS011;68936;52.526;13.326;2023-05-10T11:25:44;4.50;;;2.75;;
79468;SDS011;68936;52.526;13.326;2023-05-10T11:28:10;4.35;;;3.10;;
79468;SDS011;68936;52.526;13.326;2023-05-10T11:30:43;5.35;;;3.25;;
79468;SDS011;68936;52.526;13.326;2023-05-10T11:33:17;5.15;;;3.40;;
79468;SDS011;68936;52.526;13.326;2023-05-10T11:38:11;5.95;;;3.20;;
79468;SDS011;68936;52.526;13.326;2023-05-10T11:40:37;4.10;;;2.75;;
79468;SDS011;68936;52.526;13.326;2023-05-10T11:43:04;4.32;;;3.05;;
79468;SDS011;68936;52.526;13.326;2023-05-10T11:45:33;4.25;;;3.08;;
79468;SDS011;68936;52.526;13.326;2023-05-10T11:48:02;3.58;;;2.80;;
79468;SDS011;68936;52.526;13.326;2023-05-10T11:50:28;4.32;;;2.97;;
79468;SDS011;68936;52.526;13.326;2023-05-10T11:52:55;3.72;;;2.78;;
79468;SDS011;68936;52.526;13.326;2023-05-10T11:55:23;7.55;;;3.60;;
79468;SDS011;68936;52.526;13.326;2023-05-10T11:57:59;4.82;;;2.95;;
79468;SDS011;68936;52.526;13.326;2023-05-10T12:00:25;4.63;;;3.15;;
79468;SDS011;68936;52.526;13.326;2023-05-10T12:02:52;6.47;;;3.05;;
79468;SDS011;68936;52.526;13.326;2023-05-10T12:05:18;3.72;;;2.63;;
79468;SDS011;68936;52.526;13.326;2023-05-10T12:07:44;3.55;;;2.83;;
79468;SDS011;68936;52.526;13.326;2023-05-10T12:10:12;4.63;;;3.10;;
79468;SDS011;68936;52.526;13.326;2023-05-10T12:12:45;3.58;;;2.90;;
79468;SDS011;68936;52.526;13.326;2023-05-10T12:15:19;4.70;;;3.30;;
79468;SDS011;68936;52.526;13.326;2023-05-10T12:17:45;3.20;;;2.83;;
79468;SDS011;68936;52.526;13.326;2023-05-10T12:20:15;3.97;;;2.90;;
79468;SDS011;68936;52.526;13.326;2023-05-10T12:22:47;3.92;;;2.97;;
79468;SDS011;68936;52.526;13.326;2023-05-10T12:25:15;4.72;;;3.22;;
79468;SDS011;68936;52.526;13.326;2023-05-10T12:27:47;4.93;;;3.30;;
79468;SDS011;68936;52.526;13.326;2023-05-10T12:30:13;3.78;;;2.63;;
79468;SDS011;68936;52.526;13.326;2023-05-10T12:32:44;4.30;;;3.33;;
79468;SDS011;68936;52.526;13.326;2023-05-10T12:35:10;4.10;;;3.00;;
79468;SDS011;68936;52.526;13.326;2023-05-10T12:37:36;5.03;;;3.40;;
79468;SDS011;68936;52.526;13.326;2023-05-10T12:40:07;3.20;;;2.78;;
79468;SDS011;68936;52.526;13.326;2023-05-10T12:42:36;4.90;;;3.08;;
79468;SDS011;68936;52.526;13.326;2023-05-10T12:45:02;3.55;;;2.70;;
79468;SDS011;68936;52.526;13.326;2023-05-10T12:47:28;3.60;;;2.67;;
79468;SDS011;68936;52.526;13.326;2023-05-10T12:49:55;4.65;;;2.75;;
79468;SDS011;68936;52.526;13.326;2023-05-10T12:52:21;3.78;;;2.83;;
79468;SDS011;68936;52.526;13.326;2023-05-10T12:54:49;4.80;;;2.80;;
79468;SDS011;68936;52.526;13.326;2023-05-10T12:57:17;4.15;;;3.17;;
79468;SDS011;68936;52.526;13.326;2023-05-10T12:59:44;3.60;;;2.97;;
79468;SDS011;68936;52.526;13.326;2023-05-10T13:02:10;6.25;;;3.38;;
79468;SDS011;68936;52.526;13.326;2023-05-10T13:04:36;4.00;;;2.85;;
79468;SDS011;68936;52.526;13.326;2023-05-10T13:07:07;4.10;;;3.22;;
79468;SDS011;68936;52.526;13.326;2023-05-10T13:09:38;3.47;;;2.90;;
79468;SDS011;68936;52.526;13.326;2023-05-10T13:12:04;3.47;;;2.97;;
79468;SDS011;68936;52.526;13.326;2023-05-10T13:14:32;5.07;;;3.03;;
79468;SDS011;68936;52.526;13.326;2023-05-10T13:17:01;4.60;;;3.13;;
79468;SDS011;68936;52.526;13.326;2023-05-10T13:19:27;3.72;;;2.85;;
79468;SDS011;68936;52.526;13.326;2023-05-10T13:21:53;4.53;;;3.22;;
79468;SDS011;68936;52.526;13.326;2023-05-10T13:24:21;7.35;;;3.28;;
79468;SDS011;68936;52.526;13.326;2023-05-10T13:26:47;4.70;;;2.58;;
79468;SDS011;68936;52.526;13.326;2023-05-10T13:29:13;6.78;;;2.92;;
79468;SDS011;68936;52.526;13.326;2023-05-10T13:31:42;6.38;;;3.13;;
79468;SDS011;68936;52.526;13.326;2023-05-10T13:34:08;4.75;;;2.90;;
79468;SDS011;68936;52.526;13.326;2023-05-10T13:36:34;4.35;;;2.75;;
79468;SDS011;68936;52.526;13.326;2023-05-10T13:39:02;5.95;;;2.80;;
79468;SDS011;68936;52.526;13.326;2023-05-10T13:41:30;5.00;;;3.00;;
79468;SDS011;68936;52.526;13.326;2023-05-10T13:43:56;5.85;;;2.97;;
79468;SDS011;68936;52.526;13.326;2023-05-10T13:46:24;7.20;;;3.00;;
79468;SDS011;68936;52.526;13.326;2023-05-10T13:48:50;3.08;;;2.50;;
79468;SDS011;68936;52.526;13.326;2023-05-10T13:51:19;3.58;;;3.08;;
79468;SDS011;68936;52.526;13.326;2023-05-10T13:53:47;7.85;;;3.08;;
79468;SDS011;68936;52.526;13.326;2023-05-10T13:56:14;7.82;;;3.20;;
79468;SDS011;68936;52.526;13.326;2023-05-10T13:58:40;7.88;;;2.83;;
79468;SDS011;68936;52.526;13.326;2023-05-10T14:01:06;6.40;;;2.80;;
79468;SDS011;68936;52.526;13.326;2023-05-10T14:03:32;5.70;;;3.25;;
79468;SDS011;68936;52.526;13.326;2023-05-10T14:06:01;9.60;;;3.13;;
79468;SDS011;68936;52.526;13.326;2023-05-10T14:08:27;7.93;;;3.03;;
79468;SDS011;68936;52.526;13.326;2023-05-10T14:10:53;6.95;;;2.45;;
79468;SDS011;68936;52.526;13.326;2023-05-10T14:13:21;6.57;;;3.53;;
79468;SDS011;68936;52.526;13.326;2023-05-10T14:15:47;7.35;;;3.15;;
79468;SDS011;68936;52.526;13.326;2023-05-10T14:18:15;8.18;;;2.88;;
79468;SDS011;68936;52.526;13.326;2023-05-10T14:20:44;6.88;;;2.85;;
79468;SDS011;68936;52.526;13.326;2023-05-10T14:23:12;7.22;;;3.00;;
79468;SDS011;68936;52.526;13.326;2023-05-10T14:25:41;8.40;;;3.50;;
79468;SDS011;68936;52.526;13.326;2023-05-10T14:28:07;5.32;;;2.60;;
79468;SDS011;68936;52.526;13.326;2023-05-10T14:30:33;6.60;;;2.80;;
79468;SDS011;68936;52.526;13.326;2023-05-10T14:33:02;4.85;;;2.92;;
79468;SDS011;68936;52.526;13.326;2023-05-10T14:35:30;7.22;;;2.67;;
79468;SDS011;68936;52.526;13.326;2023-05-10T14:37:59;8.57;;;2.60;;
79468;SDS011;68936;52.526;13.326;2023-05-10T14:40:25;3.40;;;2.75;;
79468;SDS011;68936;52.526;13.326;2023-05-10T14:42:51;3.95;;;2.60;;
79468;SDS011;68936;52.526;13.326;2023-05-10T14:45:20;3.60;;;2.55;;
79468;SDS011;68936;52.526;13.326;2023-05-10T14:47:46;4.03;;;2.90;;
79468;SDS011;68936;52.526;13.326;2023-05-10T14:50:12;3.90;;;2.58;;
79468;SDS011;68936;52.526;13.326;2023-05-10T14:52:38;4.38;;;2.92;;
79468;SDS011;68936;52.526;13.326;2023-05-10T14:55:04;5.20;;;2.70;;
79468;SDS011;68936;52.526;13.326;2023-05-10T14:57:31;3.53;;;2.70;;
79468;SDS011;68936;52.526;13.326;2023-05-10T14:59:57;5.32;;;2.80;;
79468;SDS011;68936;52.526;13.326;2023-05-10T15:02:23;3.85;;;2.78;;
79468;SDS011;68936;52.526;13.326;2023-05-10T15:04:51;7.40;;;2.70;;
79468;SDS011;68936;52.526;13.326;2023-05-10T15:07:17;6.18;;;2.70;;
79468;SDS011;68936;52.526;13.326;2023-05-10T15:09:46;4.95;;;2.50;;
79468;SDS011;68936;52.526;13.326;2023-05-10T15:12:14;5.57;;;2.88;;
79468;SDS011;68936;52.526;13.326;2023-05-10T15:14:43;5.22;;;2.83;;
79468;SDS011;68936;52.526;13.326;2023-05-10T15:17:11;11.88;;;2.90;;
79468;SDS011;68936;52.526;13.326;2023-05-10T15:19:37;6.93;;;2.97;;